ADDS METAR Data INFO
IDs: Format: Raw Decoded Include TAF

Data at: 1052 UTC 19 Oct 2017

PASM 191042Z AUTO 33006KT 1/4SM FZFG OVC002 M03/M03 A2963 RMK AO2 FZRANO
PASM 191026Z AUTO 34006KT 3/4SM BR OVC002 M03/M03 A2963 RMK AO2 FZRANO
PASM 191018Z AUTO 33005KT 1 3/4SM BR OVC002 M03/M03 A2963 RMK AO2 FZRANO
PASM 191004Z AUTO 30004KT 6SM BR OVC002 M03/M03 A2963 RMK AO2 FZRANO
PASM 190956Z AUTO 33006KT 4SM BR OVC004 M03/M03 A2963 RMK AO2 SNB34E46 SLP050 P0000 T10281028 FZRANO
PASM 190939Z AUTO 31005KT 9SM -SN OVC004 M03/M03 A2963 RMK AO2 SNB34 CIG 003V007 P0000 FZRANO
PASM 190926Z AUTO 27003KT 10SM BKN006 OVC047 M03/M03 A2962 RMK AO2 CIG 004V008 FZRANO
PASM 190856Z AUTO 00000KT 10SM FEW001 OVC049 M03/M03 A2962 RMK AO2 SNB11E48 SLP047 P0000 60000 T10281033 51004 FZRANO
PASM 190843Z AUTO 00000KT 5SM -SN BR SCT001 BKN038 OVC047 M03/M03 A2962 RMK AO2 SNB11 P0000 FZRANO
PASM 190837Z AUTO 32003KT 2SM -SN BR BKN001 BKN038 OVC047 M03/M03 A2962 RMK AO2 SNB11 P0000 FZRANO
PASM 190832Z AUTO 31004KT 1SM -SN BR BKN001 OVC038 M03/M03 A2962 RMK AO2 SNB11 P0000 FZRANO
PASM 190827Z AUTO 30003KT 1/2SM -SN FZFG OVC001 M03/M03 A2962 RMK AO2 SNB11 P0000 FZRANO
PASM 190756Z AUTO 00000KT 1/4SM FZFG OVC001 M03/M03 A2961 RMK AO2 SLP046 T10281033 400221039 FZRANO
PASM 190656Z AUTO 31003KT 1/4SM FZFG OVC001 M03/M03 A2962 RMK AO2 SLP046 T10281033 FZRANO
PASM 190633Z AUTO 30006KT 1/4SM FZFG OVC001 M03/M03 A2961 RMK AO2 FZRANO
PASM 190628Z AUTO 30006KT 3/4SM BR BKN001 M03/M03 A2961 RMK AO2 FZRANO
PASM 190624Z AUTO 29006KT 1 3/4SM BR BKN001 M03/M03 A2961 RMK AO2 VIS 3/4V4 FZRANO
PASM 190621Z AUTO 29004KT 3SM BR BKN001 M03/M03 A2961 RMK AO2 FZRANO
PASM 190612Z AUTO 28006KT 10SM SCT001 M03/M04 A2961 RMK AO2 FZRANO
PASM 190556Z AUTO 29005KT 10SM CLR M03/M04 A2961 RMK AO2 SLP043 60000 T10331039 10022 21039 53005 FZRANO
PASM 190456Z AUTO 31006KT 10SM FEW026 M03/M03 A2960 RMK AO2 SNB04E19 SLPNO P0000 T10281033 FZRANO
PASM 190414Z AUTO 31005KT 8SM -SN SCT008 SCT033 M02/M02 A2960 RMK AO2 SNB04 P0000 FZRANO
PASM 190356Z AUTO 32005KT 10SM BKN008 M02/M02 A2960 RMK AO2 SNB32E44 CIG 006V012 SLPNO P0000 T10171022 FZRANO
PASM 190336Z AUTO 31007KT 10SM -SN BKN008 BKN018 OVC025 M01/M02 A2959 RMK AO2 SNB32 CIG 005V012 P0000 FZRANO
PASM 190324Z AUTO 30007KT 10SM SCT006 SCT017 BKN028 M02/M02 A2959 RMK AO2 FZRANO
PASM 190256Z AUTO 27007KT 10SM FEW007 SCT028 SCT044 M02/M02 A2959 RMK AO2 SNE49 SLPNO P0000 60000 T10171022 55003 FZRANO
PASM 190240Z AUTO 26006KT 3SM -SN BR SCT007 SCT023 BKN046 M01/M02 A2959 RMK AO2 P0000 FZRANO
PASM 190237Z AUTO 26006KT 1SM -SN BR SCT007 BKN023 BKN050 M01/M02 A2959 RMK AO2 CIG 018V028 P0000 FZRANO
PASM 190232Z AUTO 28006KT 3/4SM -SN BR BKN009 BKN032 OVC100 M01/M02 A2959 RMK AO2 CIG 005V019 P0000 FZRANO
PASM 190228Z AUTO 29010KT 3/4SM -SN BR SCT011 BKN050 OVC110 M01/M02 A2959 RMK AO2 P0000 FZRANO
PASM 190222Z AUTO 30014KT 1 3/4SM -SN BR FEW015 BKN042 OVC100 M01/M02 A2958 RMK AO2 P0000 FZRANO
PASM 190156Z AUTO 28009KT 9SM -SN FEW018 SCT027 BKN044 00/M01 A2958 RMK AO2 RAB10E21B53E55UPB21E25SNB55 SLPNO P0000 T00001011 FZRANO
PASM 190137Z AUTO 30013G17KT 10SM FEW012 BKN018 OVC025 02/M01 A2958 RMK AO2 RAB10E21UPB21E25 P0000 FZRANO
PASM 190109Z AUTO 29009KT 10SM BKN014 BKN020 02/M01 A2958 RMK AO2 FZRANO
PASM 190056Z AUTO 29007KT 10SM FEW016 02/M01 A2958 RMK AO2 SLPNO T00171011 FZRANO
PASM 182356Z AUTO 30008KT 10SM FEW015 02/M02 A2960 RMK AO2 SLPNO T00221017 10022 21033 58003 FZRANO
PASM 182321Z AUTO 30007KT 10SM SCT010 01/M01 A2960 RMK AO2 FZRANO
PASM 182314Z AUTO 30009KT 10SM BKN010 01/M01 A2960 RMK AO2 CIG 007V012 FZRANO
PASM 182256Z AUTO 30009KT 10SM BKN008 BKN031 01/M01 A2960 RMK AO2 SLPNO T00061011 FZRANO
PASM 182246Z AUTO 30009KT 10SM BKN008 OVC031 01/M01 A2961 RMK AO2 FZRANO
PASM 182233Z AUTO 30009KT 10SM SCT008 BKN031 01/M01 A2961 RMK AO2 FZRANO
PASM 182223Z AUTO 29009KT 10SM FEW008 BKN029 01/M01 A2961 RMK AO2 FZRANO
PASM 182156Z AUTO 30009KT 10SM CLR 01/M01 A2961 RMK AO2 SLPNO T00061011 FZRANO
PASM 182056Z AUTO 29008KT 10SM CLR M01/M02 A2961 RMK AO2 SLPNO T10061017 51006 FZRANO
PASM 181956Z AUTO 00000KT 10SM CLR M02/M02 A2961 RMK AO2 SLPNO T10171022 FZRANO
PASM 181856Z AUTO 32003KT 10SM CLR M03/M03 A2960 RMK AO2 SLPNO T10281033 FZRANO
PASM 181805Z AUTO 32004KT 10SM SCT003 SCT035 M03/M03 A2959 RMK AO2 FZRANO
PASM 181756Z AUTO 31005KT 10SM BKN003 BKN035 M02/M03 A2959 RMK AO2 SNB26E45 SLPNO 6//// T10221028 FZRANO
PASM 181740Z AUTO 30007KT 9SM -SN BKN003 M03/M03 A2959 RMK AO2 SNB26 FZRANO
PASM 181656Z AUTO 30006KT 10SM FEW004 BKN038 M02/M02 A2958 RMK AO2 SNB16E46 SLP033 P0000 T10221022 FZRANO
PASM 181653Z AUTO 30006KT 10SM SCT004 BKN038 M02/M02 A2958 RMK AO2 SNB16E46 P0000 FZRANO
PASM 181556Z AUTO 29007KT 10SM BKN004 BKN011 OVC021 M02/M02 A2957 RMK AO2 SNB10E21 CIG 003V007 SLP031 P0000 T10171017 FZRANO
PASM 181543Z AUTO 28007KT 10SM BKN004 BKN019 OVC023 M02/M02 A2957 RMK AO2 SNB10E21 P0000 FZRANO
PASM 181540Z AUTO 28007KT 10SM SCT004 BKN019 OVC023 M02/M02 A2957 RMK AO2 SNB10E21 P0000 FZRANO
PASM 181456Z AUTO 27007KT 10SM OVC027 M02/M03 A2958 RMK AO2 SLP033 T10221028 58004 FZRANO
PASM 181444Z AUTO 29007KT 10SM BKN027 OVC035 M03/M03 A2958 RMK AO2 FZRANO
PASM 181423Z AUTO 28003KT 10SM FEW001 BKN036 OVC043 M03/M04 A2958 RMK AO2 FZRANO
PASM 181411Z AUTO 29003KT 3SM BR SCT001 BKN029 OVC035 M03/M04 A2959 RMK AO2 FZRANO
PASM 181408Z AUTO 29004KT 1 1/4SM BR BKN001 OVC033 M03/M04 A2959 RMK AO2 FZRANO
PASM 181406Z AUTO 30004KT 3/4SM BR BKN001 BKN033 OVC040 M03/M04 A2959 RMK AO2 FZRANO
PASM 181356Z AUTO 27004KT 1/4SM FZFG OVC001 M03/M04 A2959 RMK AO2 SLP036 T10331039 FZRANO
PASM 181348Z AUTO 27004KT 1/2SM FZFG BKN001 M03/M03 A2959 RMK AO2 FZRANO
PASM 181345Z AUTO 27005KT 1SM BR BKN001 M03/M04 A2959 RMK AO2 FZRANO
PASM 181341Z AUTO 27006KT 2 1/2SM BR BKN001 M03/M04 A2959 RMK AO2 FZRANO
PASM 181335Z AUTO 28005KT 9SM SCT001 M04/M04 A2959 RMK AO2 FZRANO
PASM 181256Z AUTO 29004KT 10SM CLR M04/M05 A2959 RMK AO2 SLP037 T10391050 FZRANO
PASM 181156Z AUTO 32006KT 10SM CLR M03/M04 A2959 RMK AO2 SLP037 60000 T10331039 10000 21033 50001 FZRANO
PASM 181056Z AUTO 33007KT 10SM SCT038 BKN048 M02/M02 A2959 RMK AO2 SLP037 T10171017 FZRANO
PASM 181001Z AUTO 33007KT 3SM BR FEW005 SCT008 OVC039 M01/M01 A2959 RMK AO2 FZRANO
PASM 180958Z AUTO 33007KT 1 1/4SM BR SCT005 SCT027 OVC039 M01/M01 A2959 RMK AO2 FZRANO
PASM 180956Z AUTO 33006KT 3/4SM BR SCT003 BKN027 OVC039 M01/M01 A2959 RMK AO2 UPB13E23SNE13 SLP037 P0000 T10061011 FZRANO
PASM 180954Z AUTO 32006KT 3/4SM BR SCT003 BKN027 OVC039 M01/M01 A2959 RMK AO2 UPB13E23SNE13 P0000 FZRANO
PASM 180951Z AUTO 32005KT 1/2SM FZFG SCT003 BKN008 OVC039 M01/M01 A2959 RMK AO2 UPB13E23SNE13 CIG 006V011 P0000 FZRANO
PASM 180943Z AUTO 31005KT 1/2SM FZFG SCT003 BKN028 OVC041 M01/M01 A2959 RMK AO2 UPB13E23SNE13 P0000 FZRANO
PASM 180938Z AUTO 31004KT 3/4SM BR FEW003 SCT027 OVC041 M01/M01 A2958 RMK AO2 UPB13E23SNE13 P0000 FZRANO
PASM 180934Z AUTO 30004KT 1SM BR FEW027 OVC041 M01/M01 A2958 RMK AO2 UPB13E23SNE13 P0000 FZRANO
PASM 180919Z AUTO 30004KT 3/4SM UP BR SCT002 SCT007 OVC041 M01/M01 A2958 RMK AO2 UPB13SNE13 P0000 FZRANO
PASM 180911Z AUTO 30004KT 1/2SM -SN FG BKN002 OVC037 00/M01 A2958 RMK AO2 P0000 FZRANO
PASM 180856Z AUTO 31004KT 1/4SM -SN FG OVC002 00/M01 A2958 RMK AO2 UPB54E56SNE00B56 SLP034 P0000 60000 T00001006 53006 FZRANO
PASM 180847Z AUTO 30004KT 1/4SM FG OVC002 00/M01 A2958 RMK AO2 SNE00 P0000 FZRANO
PASM 180838Z AUTO 29004KT 1/2SM FG BKN002 BKN016 OVC032 00/M01 A2958 RMK AO2 SNE00 P0000 FZRANO
PASM 180835Z AUTO 29003KT 1SM BR BKN002 BKN014 OVC032 00/M01 A2958 RMK AO2 SNE00 P0000 FZRANO
PASM 180832Z AUTO 29003KT 2SM BR BKN002 BKN014 OVC032 00/M01 A2958 RMK AO2 SNE00 P0000 FZRANO
PASM 180823Z AUTO 27004KT 10SM FEW002 BKN014 OVC032 00/M01 A2958 RMK AO2 SNE00 P0000 FZRANO
PASM 180756Z AUTO 27005KT 9SM -SN FEW017 SCT022 OVC029 00/M01 A2958 RMK AO2 UPE19SNB19 SLP032 P0000 T00001006 400331033 FZRANO
PASM 180740Z AUTO 27005KT 3SM -SN BR FEW005 OVC017 00/M01 A2957 RMK AO2 UPE19SNB19 P0000 FZRANO
PASM 180656Z AUTO 29005KT 9SM UP OVC017 00/M01 A2957 RMK AO2 UPB51 SLP029 P0000 T00001006 FZRANO
PASM 180556Z AUTO 32006KT 10SM OVC015 00/M01 A2957 RMK AO2 SLP029 60000 T00001006 10022 21011 51009 FZRANO
PASM 180518Z AUTO 34006KT 10SM BKN015 M01/M01 A2956 RMK AO2 FZRANO
PASM 180505Z AUTO 34007KT 10SM BKN013 M01/M01 A2956 RMK AO2 FZRANO
PASM 180456Z AUTO 33007KT 10SM SCT013 M01/M02 A2956 RMK AO2 SLP027 T10111017 FZRANO
PASM 180420Z AUTO 34005KT 10SM FEW015 M01/M01 A2956 RMK AO2 FZRANO
PASM 180356Z AUTO 32003KT 10SM BKN015 00/M01 A2955 RMK AO2 SLP023 T00001006 FZRANO
PASM 180348Z AUTO 32005KT 10SM OVC015 00/M01 A2955 RMK AO2 FZRANO
PASM 180335Z AUTO 32005KT 10SM BKN013 00/M01 A2955 RMK AO2 FZRANO
PASM 180256Z AUTO 30004KT 10SM FEW027 01/M01 A2954 RMK AO2 SLP019 60000 T00061006 52004 FZRANO
PASM 180245Z AUTO 29004KT 10SM SCT012 BKN028 00/M01 A2953 RMK AO2 FZRANO
PASM 180221Z AUTO 30005KT 10SM BKN012 BKN033 01/M01 A2953 RMK AO2 FZRANO
PASM 180156Z AUTO 30003KT 10SM FEW014 SCT019 BKN033 01/M01 A2953 RMK AO2 RAB20E28UPB37E39SNB28E37 SLP015 P0000 T00061006 FZRANO
PASM 180129Z AUTO 31005KT 5SM -SN BR FEW009 BKN017 OVC035 01/M01 A2953 RMK AO2 RAB20E28SNB28 P0000 FZRANO
PASM 180119Z AUTO 29007KT 8SM SCT011 BKN017 OVC032 02/01 A2953 RMK AO2 FZRANO
PASM 180056Z AUTO 28005KT 10SM SCT021 OVC034 02/01 A2953 RMK AO2 RAB15E20SNB20E35 SLP016 P0000 T00170006 FZRANO
PASM 180029Z AUTO 29004KT 5SM -SN BR FEW005 SCT013 OVC034 01/M01 A2953 RMK AO2 RAB15E20SNB20 P0000 FZRANO
PASM 180024Z AUTO 29006KT 3SM -SN BR FEW005 BKN013 OVC034 01/M01 A2953 RMK AO2 RAB15E20SNB20 P0000 FZRANO
PASM 180016Z AUTO 31006KT 5SM -RA BR FEW005 BKN027 OVC032 02/00 A2953 RMK AO2 RAB15 P0000 FZRANO
PASM 172356Z AUTO 32006KT 10SM FEW013 OVC032 02/M01 A2953 RMK AO2 SLP016 60000 T00221006 10033 21022 58001 FZRANO
PASM 172303Z AUTO 29005KT 10SM FEW008 OVC032 02/00 A2953 RMK AO2 FZRANO
PASM 172256Z AUTO 33005KT 10SM OVC032 02/00 A2953 RMK AO2 SLP017 T00170000 FZRANO